Time;durP1;ratioP1;P1;durP2;ratioP2;P2;SDS_P1;SDS_P2;PMS_P1;PMS_P2;Temp;Humidity;BMP_temperature;BMP_pressure;BME280_temperature;BME280_humidity;BME280_pressure;Samples;Min_cycle;Max_cycle;Signal;HPM_P1;HPM_P2
2022/05/20 00:00:47;;;;;;;18.70;3.80;;;12.90;95.60;;;;;;5003842;28;20037;-75
2022/05/20 00:03:13;;;;;;;19.27;3.50;;;12.80;95.70;;;;;;5038324;28;20112;-73
2022/05/20 00:05:39;;;;;;;16.08;3.80;;;12.80;95.90;;;;;;5005391;28;20136;-73
2022/05/20 00:08:05;;;;;;;15.57;3.55;;;12.80;96.10;;;;;;5001259;28;20110;-73
2022/05/20 00:10:31;;;;;;;20.80;4.07;;;12.80;96.00;;;;;;5021993;28;20485;-72
2022/05/20 00:12:59;;;;;;;16.40;3.55;;;12.70;96.20;;;;;;5020741;28;20022;-74
2022/05/20 00:15:27;;;;;;;19.33;3.80;;;12.70;96.40;;;;;;5018000;28;20057;-73
2022/05/20 00:17:53;;;;;;;18.30;4.78;;;12.60;96.60;;;;;;5002093;28;20031;-73
2022/05/20 00:20:21;;;;;;;17.63;3.80;;;12.70;96.60;;;;;;5008423;28;20485;-74
2022/05/20 00:22:47;;;;;;;20.70;3.88;;;12.60;96.70;;;;;;5007263;28;20109;-73
2022/05/20 00:27:58;;;;;;;21.73;4.35;;;12.70;96.40;;;;;;5008927;28;20412;-73
2022/05/20 00:30:24;;;;;;;18.17;4.15;;;12.70;96.40;;;;;;5007694;28;20038;-73
2022/05/20 00:32:52;;;;;;;18.90;4.28;;;12.70;96.60;;;;;;5000530;28;20042;-73
2022/05/20 00:35:18;;;;;;;20.48;4.18;;;12.70;97.00;;;;;;5005873;28;20049;-72
2022/05/20 00:37:44;;;;;;;18.15;4.07;;;12.60;96.90;;;;;;5006637;28;20034;-73
2022/05/20 00:40:13;;;;;;;23.10;4.40;;;12.70;96.90;;;;;;5008432;28;20097;-72
2022/05/20 00:42:40;;;;;;;17.88;4.55;;;12.60;96.90;;;;;;5002696;28;20040;-73
2022/05/20 00:45:07;;;;;;;19.65;5.35;;;12.60;96.80;;;;;;5020161;28;20038;-73
2022/05/20 00:47:33;;;;;;;18.95;4.35;;;12.70;96.90;;;;;;5003838;28;20472;-73
2022/05/20 00:50:01;;;;;;;22.90;4.50;;;12.70;96.80;;;;;;5015302;28;20031;-73
2022/05/20 00:52:31;;;;;;;21.10;4.95;;;12.70;96.80;;;;;;5009622;28;20469;-73
2022/05/20 00:55:01;;;;;;;17.38;4.35;;;12.80;96.90;;;;;;5001891;28;20157;-72
2022/05/20 00:57:35;;;;;;;19.90;4.82;;;12.80;96.60;;;;;;5007316;28;20080;-73
2022/05/20 01:00:24;;;;;;;17.17;4.07;;;12.80;96.30;;;;;;5023701;28;20061;-73
2022/05/20 01:02:54;;;;;;;15.50;3.85;;;12.70;96.40;;;;;;5006432;28;20476;-73
2022/05/20 01:05:30;;;;;;;16.73;3.75;;;12.70;96.60;;;;;;5005784;28;20096;-73
2022/05/20 01:07:57;;;;;;;14.27;3.17;;;12.60;96.90;;;;;;5008424;28;20037;-72
2022/05/20 01:10:23;;;;;;;17.58;4.00;;;12.50;97.00;;;;;;5009469;28;20045;-73
2022/05/20 01:12:53;;;;;;;18.65;3.63;;;12.50;97.00;;;;;;5006438;28;20030;-73
2022/05/20 01:15:19;;;;;;;19.63;3.78;;;12.50;97.00;;;;;;5021184;28;20487;-73
2022/05/20 01:17:47;;;;;;;19.23;3.90;;;12.40;97.20;;;;;;5004904;28;20042;-73
2022/05/20 01:20:18;;;;;;;17.20;4.32;;;12.30;97.30;;;;;;5037302;28;20054;-74
2022/05/20 01:22:48;;;;;;;16.83;4.82;;;12.30;97.70;;;;;;5007183;28;20365;-73
2022/05/20 01:25:14;;;;;;;19.70;4.97;;;12.20;97.60;;;;;;5007759;28;20034;-72
2022/05/20 01:27:42;;;;;;;22.55;5.88;;;12.20;98.10;;;;;;5007417;28;20124;-75
2022/05/20 01:30:11;;;;;;;19.27;6.07;;;12.20;98.10;;;;;;5020880;28;20384;-75
2022/05/20 01:32:38;;;;;;;21.15;6.32;;;12.10;98.00;;;;;;5004493;28;20030;-73
2022/05/20 01:35:07;;;;;;;22.83;5.95;;;12.10;97.80;;;;;;5005531;28;20041;-73
2022/05/20 01:37:33;;;;;;;17.33;5.47;;;12.10;98.00;;;;;;5006839;28;20053;-73
2022/05/20 01:39:59;;;;;;;22.67;6.57;;;12.10;97.90;;;;;;5037515;28;20388;-73
2022/05/20 01:42:39;;;;;;;22.67;6.97;;;12.00;97.90;;;;;;5001606;28;20056;-73
2022/05/20 01:45:15;;;;;;;26.02;6.80;;;12.00;98.10;;;;;;5034897;28;20043;-72
2022/05/20 01:47:58;;;;;;;20.13;6.18;;;12.00;98.20;;;;;;5019950;28;20120;-72
2022/05/20 01:50:31;;;;;;;24.52;6.60;;;11.90;98.20;;;;;;5005468;28;20131;-72
2022/05/20 01:53:08;;;;;;;18.83;5.88;;;11.90;98.50;;;;;;5007427;28;20030;-73
2022/05/20 01:55:41;;;;;;;17.17;5.43;;;11.90;98.50;;;;;;5000060;28;20076;-72
2022/05/20 01:58:18;;;;;;;15.88;4.75;;;11.90;98.30;;;;;;5006467;28;20037;-72
2022/05/20 02:00:46;;;;;;;15.40;5.40;;;11.90;98.30;;;;;;5000740;28;20030;-73
2022/05/20 02:03:22;;;;;;;18.30;5.32;;;11.90;98.30;;;;;;5004473;28;20139;-72
2022/05/20 02:05:54;;;;;;;18.27;5.07;;;11.90;98.50;;;;;;5017079;28;20038;-72
2022/05/20 02:08:24;;;;;;;19.15;5.45;;;12.00;98.30;;;;;;5008021;28;20034;-73
2022/05/20 02:10:56;;;;;;;17.17;5.53;;;12.00;98.40;;;;;;5001707;28;20080;-74
2022/05/20 02:13:26;;;;;;;14.32;6.03;;;12.10;98.50;;;;;;5004869;28;20736;-72
2022/05/20 02:15:59;;;;;;;19.40;5.78;;;12.10;98.60;;;;;;5032798;28;20038;-74
2022/05/20 02:18:33;;;;;;;16.90;5.07;;;12.10;98.30;;;;;;5004217;28;20033;-72
2022/05/20 02:21:08;;;;;;;15.88;4.80;;;12.10;98.30;;;;;;5031283;28;20029;-72
2022/05/20 02:23:41;;;;;;;17.30;5.07;;;12.00;98.40;;;;;;5016233;28;20469;-73
2022/05/20 02:26:10;;;;;;;16.17;5.25;;;12.00;98.50;;;;;;5006026;28;20299;-75
2022/05/20 02:28:54;;;;;;;14.32;4.78;;;12.00;98.40;;;;;;5034636;28;20105;-72
2022/05/20 02:31:30;;;;;;;16.90;5.00;;;11.90;98.50;;;;;;5004945;28;20874;-73
2022/05/20 02:33:56;;;;;;;18.05;4.88;;;12.00;98.70;;;;;;5003395;28;20034;-73
2022/05/20 02:36:28;;;;;;;19.38;5.95;;;11.90;98.60;;;;;;5000899;28;20051;-73
2022/05/20 02:38:54;;;;;;;22.20;6.15;;;11.90;98.60;;;;;;5006468;28;20524;-72
2022/05/20 02:41:19;;;;;;;16.95;4.85;;;11.80;98.70;;;;;;5007204;28;20114;-72
2022/05/20 02:43:45;;;;;;;19.02;5.80;;;11.80;99.20;;;;;;5006130;28;20057;-73
2022/05/20 02:46:12;;;;;;;22.55;5.30;;;11.70;99.30;;;;;;5005279;28;20483;-72
2022/05/20 02:48:38;;;;;;;19.30;5.82;;;11.70;99.60;;;;;;5016528;28;20030;-72
2022/05/20 02:51:04;;;;;;;19.70;5.53;;;11.70;99.60;;;;;;5005597;28;20057;-74
2022/05/20 02:53:30;;;;;;;18.63;5.78;;;11.80;99.50;;;;;;5006824;28;20037;-72
2022/05/20 02:55:56;;;;;;;17.10;5.65;;;11.80;99.50;;;;;;5002614;28;20045;-73
2022/05/20 03:04:12;;;;;;;21.35;6.20;;;11.70;99.30;;;;;;5005584;28;20095;-72
2022/05/20 03:06:47;;;;;;;15.80;5.90;;;11.60;99.50;;;;;;5000796;28;20045;-72
2022/05/20 03:09:15;;;;;;;16.95;6.47;;;11.60;99.50;;;;;;5029865;28;20030;-73
2022/05/20 03:11:41;;;;;;;19.50;6.47;;;11.60;99.50;;;;;;5004302;28;20026;-73
2022/05/20 03:14:09;;;;;;;21.63;6.07;;;11.50;99.50;;;;;;5005092;28;20033;-73
2022/05/20 03:16:36;;;;;;;18.38;7.07;;;11.50;99.60;;;;;;5036074;28;20400;-74
2022/05/20 03:19:01;;;;;;;26.60;7.60;;;11.50;99.70;;;;;;5006945;28;20100;-74
2022/05/20 03:21:27;;;;;;;16.30;6.18;;;11.40;99.90;;;;;;5005381;28;20053;-73
2022/05/20 03:23:53;;;;;;;19.13;6.90;;;11.40;99.90;;;;;;5005879;28;20029;-73
2022/05/20 03:26:20;;;;;;;20.10;6.65;;;11.40;99.90;;;;;;5006538;28;20054;-74
2022/05/20 03:28:46;;;;;;;24.23;6.82;;;11.40;99.90;;;;;;5006085;28;20034;-75
2022/05/20 03:31:13;;;;;;;20.38;7.68;;;11.50;99.90;;;;;;5006492;28;20380;-73
2022/05/20 03:33:40;;;;;;;20.77;7.43;;;11.50;99.90;;;;;;4998797;28;20084;-73
2022/05/20 03:36:09;;;;;;;27.95;8.25;;;11.50;99.80;;;;;;5005985;28;20092;-73
2022/05/20 03:38:35;;;;;;;22.08;7.80;;;11.40;99.70;;;;;;5015805;28;20030;-73
2022/05/20 03:41:01;;;;;;;23.80;7.85;;;11.40;99.90;;;;;;5025083;28;20046;-73
2022/05/20 03:43:27;;;;;;;14.57;7.03;;;11.40;99.80;;;;;;5002597;28;20057;-74
2022/05/20 03:45:54;;;;;;;21.60;8.85;;;11.30;99.90;;;;;;5018307;28;20050;-73
2022/05/20 03:48:21;;;;;;;25.38;8.80;;;11.40;99.90;;;;;;4992358;28;20023;-74
2022/05/20 03:50:47;;;;;;;19.95;8.50;;;11.30;99.90;;;;;;5006207;28;20602;-74
2022/05/20 03:53:13;;;;;;;27.42;9.18;;;11.30;99.90;;;;;;5002242;28;20033;-74
2022/05/20 03:55:39;;;;;;;24.88;9.10;;;11.30;99.90;;;;;;5038532;28;20083;-72
2022/05/20 03:58:05;;;;;;;26.17;9.50;;;11.30;99.90;;;;;;5006198;28;20038;-73
2022/05/20 04:00:31;;;;;;;24.08;9.32;;;11.40;99.90;;;;;;5005644;28;20040;-73
2022/05/20 04:02:57;;;;;;;24.73;9.57;;;11.40;99.90;;;;;;5006613;28;20040;-73
2022/05/20 04:05:23;;;;;;;23.67;9.25;;;11.40;99.90;;;;;;5037320;28;20033;-73
2022/05/20 04:07:49;;;;;;;26.10;9.50;;;11.40;99.90;;;;;;5004511;28;20033;-73
2022/05/20 04:10:14;;;;;;;25.17;9.20;;;11.40;99.90;;;;;;5006085;28;20444;-73
2022/05/20 04:12:42;;;;;;;36.35;11.68;;;11.50;99.90;;;;;;5005111;28;20026;-72
2022/05/20 04:15:11;;;;;;;39.75;11.23;;;11.50;99.90;;;;;;5004009;28;20048;-72
2022/05/20 04:17:37;;;;;;;30.10;10.02;;;11.50;99.90;;;;;;5006918;28;20834;-73
2022/05/20 04:20:04;;;;;;;24.88;10.02;;;11.50;99.90;;;;;;5003223;28;20097;-73
2022/05/20 04:22:35;;;;;;;30.83;9.07;;;11.50;99.90;;;;;;5006428;28;20113;-72
2022/05/20 04:25:02;;;;;;;30.02;10.02;;;11.50;99.90;;;;;;5003324;28;20041;-73
2022/05/20 04:27:28;;;;;;;22.52;8.40;;;11.60;99.90;;;;;;5005573;28;20046;-74
2022/05/20 04:29:54;;;;;;;23.17;8.25;;;11.60;99.90;;;;;;5005833;28;20468;-74
2022/05/20 04:32:20;;;;;;;26.10;10.05;;;11.60;99.90;;;;;;5006634;28;20093;-74
2022/05/20 04:34:47;;;;;;;29.80;10.82;;;11.70;99.90;;;;;;5006043;28;20125;-76
2022/05/20 04:37:13;;;;;;;20.67;9.13;;;11.70;99.90;;;;;;5004211;28;20033;-74
2022/05/20 04:39:39;;;;;;;25.65;9.55;;;11.70;99.90;;;;;;5032765;28;20380;-74
2022/05/20 04:47:34;;;;;;;22.70;8.25;;;11.80;99.90;;;;;;5000624;28;20056;-73
2022/05/20 04:49:59;;;;;;;17.90;7.50;;;11.80;99.80;;;;;;5007835;28;20387;-74
2022/05/20 04:52:25;;;;;;;22.70;9.32;;;11.80;99.70;;;;;;5004365;28;20083;-74
2022/05/20 04:54:52;;;;;;;30.50;10.85;;;11.70;99.70;;;;;;5008511;28;20143;-74
2022/05/20 04:57:33;;;;;;;24.88;9.07;;;11.70;99.70;;;;;;4995192;28;20384;-75
2022/05/20 05:00:05;;;;;;;23.15;8.90;;;11.70;99.80;;;;;;5039557;28;20117;-74
2022/05/20 05:02:32;;;;;;;17.63;7.68;;;11.70;99.90;;;;;;5032285;28;20030;-76
2022/05/20 05:04:57;;;;;;;18.10;7.57;;;11.70;99.90;;;;;;5006871;28;20037;-75
2022/05/20 05:07:23;;;;;;;26.80;10.43;;;11.80;99.70;;;;;;5006870;28;20091;-74
2022/05/20 05:09:50;;;;;;;19.27;8.65;;;11.70;99.70;;;;;;5040717;28;20033;-74
2022/05/20 05:12:16;;;;;;;26.65;9.73;;;11.70;99.70;;;;;;5001762;28;20767;-74
2022/05/20 05:14:46;;;;;;;19.00;9.00;;;11.70;99.80;;;;;;5006492;28;20034;-73
2022/05/20 05:17:14;;;;;;;19.38;8.13;;;11.70;99.80;;;;;;5008434;28;20510;-74
2022/05/20 05:19:41;;;;;;;27.80;9.75;;;11.70;99.90;;;;;;5038825;28;20096;-73
2022/05/20 05:22:08;;;;;;;23.83;8.80;;;11.70;99.90;;;;;;5007822;28;20384;-75
2022/05/20 05:24:35;;;;;;;22.58;8.73;;;11.70;99.90;;;;;;5008546;28;20033;-74
2022/05/20 05:27:01;;;;;;;27.48;10.18;;;11.70;99.90;;;;;;5007269;28;20100;-74
2022/05/20 05:29:27;;;;;;;24.85;9.10;;;11.70;99.90;;;;;;5003551;28;20802;-74
2022/05/20 05:31:53;;;;;;;21.42;7.90;;;11.70;99.90;;;;;;5002957;28;20036;-74
2022/05/20 05:34:19;;;;;;;21.65;9.38;;;11.80;99.90;;;;;;5008312;28;20026;-74
2022/05/20 05:36:44;;;;;;;18.48;8.38;;;11.80;99.90;;;;;;5009511;28;20122;-75
2022/05/20 05:39:10;;;;;;;20.02;8.63;;;11.80;99.90;;;;;;5007160;28;20034;-74
2022/05/20 05:41:36;;;;;;;22.48;8.32;;;11.90;99.90;;;;;;5009789;28;20026;-74
2022/05/20 05:44:03;;;;;;;20.27;7.60;;;11.90;99.90;;;;;;5039793;28;20034;-73
2022/05/20 05:46:30;;;;;;;19.42;7.10;;;11.90;99.80;;;;;;5006715;28;20041;-73
2022/05/20 05:48:56;;;;;;;13.93;6.03;;;12.00;99.80;;;;;;5010199;28;20095;-74
2022/05/20 05:51:22;;;;;;;16.52;5.70;;;12.00;99.70;;;;;;5011537;28;20109;-75
2022/05/20 05:53:48;;;;;;;17.77;6.82;;;12.10;99.50;;;;;;5000919;28;20137;-73
2022/05/20 05:56:13;;;;;;;18.00;6.70;;;12.10;99.20;;;;;;5009687;28;20026;-73
2022/05/20 05:58:39;;;;;;;23.58;7.65;;;12.20;99.30;;;;;;5015152;28;20025;-73
2022/05/20 06:01:05;;;;;;;20.63;7.35;;;12.20;99.50;;;;;;5006629;28;20030;-73
2022/05/20 06:03:31;;;;;;;19.75;6.28;;;12.20;99.60;;;;;;5006311;28;20101;-73
2022/05/20 06:05:57;;;;;;;20.08;6.82;;;12.20;99.50;;;;;;5009128;28;20124;-73
2022/05/20 06:08:23;;;;;;;19.80;6.68;;;12.30;99.40;;;;;;5019884;28;20161;-73
2022/05/20 06:10:48;;;;;;;18.27;7.80;;;12.40;99.00;;;;;;5006752;28;20040;-73
2022/05/20 06:13:24;;;;;;;21.65;6.38;;;12.40;98.90;;;;;;5003832;28;20022;-73
2022/05/20 06:15:51;;;;;;;13.75;4.53;;;12.50;98.80;;;;;;5005366;28;20030;-73
2022/05/20 06:18:17;;;;;;;14.50;5.15;;;12.50;98.80;;;;;;5003383;28;20172;-73
2022/05/20 06:20:42;;;;;;;17.70;5.72;;;12.60;98.60;;;;;;5007532;28;20112;-73
2022/05/20 06:23:08;;;;;;;14.73;5.90;;;12.60;98.20;;;;;;5003553;28;20030;-72
2022/05/20 06:25:33;;;;;;;18.10;7.30;;;12.60;98.50;;;;;;5021067;28;20069;-72
2022/05/20 06:28:12;;;;;;;18.05;7.88;;;12.60;98.70;;;;;;5005730;28;20054;-73
2022/05/20 06:30:38;;;;;;;23.17;8.23;;;12.60;98.60;;;;;;5006315;28;20508;-74
2022/05/20 06:33:05;;;;;;;18.42;7.32;;;12.60;98.70;;;;;;5009305;28;20511;-73
2022/05/20 06:41:01;;;;;;;21.60;7.10;;;12.60;98.70;;;;;;5008460;28;20784;-72
2022/05/20 06:43:27;;;;;;;15.38;6.68;;;12.60;98.90;;;;;;4993989;28;20034;-73
2022/05/20 06:46:00;;;;;;;20.58;7.70;;;12.50;98.90;;;;;;5005545;28;20025;-73
2022/05/20 06:48:41;;;;;;;16.60;7.78;;;12.50;98.90;;;;;;5004353;28;20034;-73
2022/05/20 06:51:09;;;;;;;17.50;7.53;;;12.60;99.10;;;;;;5001318;28;20365;-73
2022/05/20 06:53:35;;;;;;;17.00;8.32;;;12.60;99.20;;;;;;5003893;28;20057;-73
2022/05/20 06:56:01;;;;;;;13.30;7.20;;;12.60;99.30;;;;;;5011143;28;20103;-72
2022/05/20 06:58:26;;;;;;;16.05;7.03;;;12.60;99.20;;;;;;5024582;28;20033;-74
2022/05/20 07:00:52;;;;;;;17.80;8.45;;;12.60;99.20;;;;;;5005867;28;20116;-74
2022/05/20 07:03:20;;;;;;;20.35;8.70;;;12.60;99.50;;;;;;4988856;28;20117;-74
2022/05/20 07:05:46;;;;;;;19.63;8.57;;;12.60;99.40;;;;;;5005434;28;20042;-75
2022/05/20 07:08:12;;;;;;;19.55;7.75;;;12.60;99.60;;;;;;5007566;28;20037;-76
2022/05/20 07:10:38;;;;;;;19.15;7.68;;;12.60;99.50;;;;;;5036512;28;20029;-74
2022/05/20 07:13:05;;;;;;;19.38;7.53;;;12.60;99.40;;;;;;5001724;28;20104;-75
2022/05/20 07:15:31;;;;;;;18.35;7.50;;;12.60;99.50;;;;;;5008702;28;20041;-75
2022/05/20 07:17:57;;;;;;;21.77;9.43;;;12.70;99.60;;;;;;5002934;28;20038;-74
2022/05/20 07:20:22;;;;;;;21.10;8.80;;;12.70;99.60;;;;;;5008684;28;21058;-74
2022/05/20 07:22:48;;;;;;;19.38;9.45;;;12.80;99.70;;;;;;5003761;28;20156;-74
2022/05/20 07:25:14;;;;;;;20.30;9.27;;;12.80;99.90;;;;;;5005123;28;20084;-75
2022/05/20 07:27:40;;;;;;;20.48;9.23;;;12.80;99.90;;;;;;5005860;28;20129;-76
2022/05/20 07:30:07;;;;;;;18.52;8.85;;;12.90;99.90;;;;;;5005619;28;20120;-76
2022/05/20 07:32:33;;;;;;;18.88;8.82;;;12.90;99.90;;;;;;5005233;28;20568;-75
2022/05/20 07:34:59;;;;;;;20.33;8.18;;;12.90;99.90;;;;;;5017733;28;20116;-74
2022/05/20 07:37:24;;;;;;;18.85;7.65;;;12.90;99.80;;;;;;5006400;28;20026;-76
2022/05/20 07:39:50;;;;;;;18.60;7.25;;;12.90;99.50;;;;;;5006385;28;20036;-75
2022/05/20 07:42:16;;;;;;;19.17;7.93;;;12.90;99.40;;;;;;5006790;28;20045;-75
2022/05/20 07:44:42;;;;;;;17.27;7.25;;;12.90;99.50;;;;;;5006716;28;20142;-75
2022/05/20 07:47:08;;;;;;;17.20;7.90;;;12.90;99.60;;;;;;5004532;28;20033;-76
2022/05/20 07:49:34;;;;;;;23.05;8.85;;;12.90;99.60;;;;;;4996901;28;20030;-76
2022/05/20 07:52:02;;;;;;;18.23;8.80;;;12.90;99.60;;;;;;5022561;28;20030;-76
2022/05/20 07:54:36;;;;;;;23.80;9.02;;;13.00;99.60;;;;;;5011700;28;20034;-75
2022/05/20 07:57:07;;;;;;;20.05;8.73;;;13.00;99.70;;;;;;5002881;28;20037;-76
2022/05/20 07:59:53;;;;;;;22.83;8.70;;;13.00;99.60;;;;;;5019890;28;20048;-76
2022/05/20 08:02:26;;;;;;;16.25;7.30;;;13.00;99.80;;;;;;5022904;28;20030;-76
2022/05/20 08:04:55;;;;;;;17.38;7.05;;;13.10;99.90;;;;;;5004529;28;20044;-74
2022/05/20 08:07:34;;;;;;;22.10;9.27;;;13.00;99.80;;;;;;5004277;28;20061;-75
2022/05/20 08:10:07;;;;;;;26.77;9.77;;;13.00;99.90;;;;;;5003807;28;20271;-73
2022/05/20 08:12:32;;;;;;;22.08;9.70;;;13.00;99.80;;;;;;5000839;28;20022;-72
2022/05/20 08:14:58;;;;;;;21.70;7.80;;;13.00;99.90;;;;;;5020558;28;20026;-74
2022/05/20 08:17:24;;;;;;;14.55;6.13;;;13.00;99.90;;;;;;5038694;28;20049;-73
2022/05/20 08:19:51;;;;;;;14.70;6.25;;;13.00;99.50;;;;;;4995225;28;20026;-73
2022/05/20 08:22:22;;;;;;;12.25;4.90;;;12.90;99.00;;;;;;5006780;28;20030;-73
2022/05/20 08:24:52;;;;;;;8.38;3.20;;;12.80;98.20;;;;;;5004061;28;20038;-73
2022/05/20 08:27:18;;;;;;;6.18;2.33;;;12.70;97.70;;;;;;5003997;28;20049;-72
2022/05/20 08:29:44;;;;;;;9.70;2.17;;;12.60;97.40;;;;;;5008031;28;20035;-75
2022/05/20 08:32:10;;;;;;;9.52;2.22;;;12.40;97.10;;;;;;5007130;28;20053;-73
2022/05/20 08:34:35;;;;;;;8.82;1.63;;;12.30;97.20;;;;;;5006222;28;20229;-75
2022/05/20 08:37:01;;;;;;;6.75;1.60;;;12.20;97.40;;;;;;5009438;28;20883;-72
2022/05/20 08:39:27;;;;;;;8.13;1.95;;;12.20;97.80;;;;;;5006265;28;20029;-74
2022/05/20 08:41:54;;;;;;;5.35;1.40;;;12.10;97.90;;;;;;5001645;28;20038;-73
2022/05/20 08:44:22;;;;;;;6.40;1.80;;;12.00;98.10;;;;;;5008466;28;20060;-73
2022/05/20 08:46:48;;;;;;;8.38;2.08;;;11.90;98.40;;;;;;5010037;28;20053;-72
2022/05/20 08:49:24;;;;;;;6.30;1.98;;;11.80;98.40;;;;;;5010168;28;20026;-71
2022/05/20 08:51:53;;;;;;;9.27;2.03;;;11.80;98.60;;;;;;5024736;28;20034;-72
2022/05/20 08:54:20;;;;;;;8.57;1.52;;;11.70;99.20;;;;;;5009398;28;20120;-80
2022/05/20 08:56:46;;;;;;;6.15;1.38;;;11.70;98.60;;;;;;5004073;28;20045;-78
2022/05/20 08:59:17;;;;;;;7.63;1.70;;;11.50;98.20;;;;;;5005997;28;20045;-80
2022/05/20 09:01:52;;;;;;;6.65;1.60;;;11.50;98.60;;;;;;5032994;28;20404;-80
2022/05/20 09:04:22;;;;;;;5.30;1.63;;;11.40;99.10;;;;;;5004429;28;20050;-80
2022/05/20 09:07:03;;;;;;;7.43;1.80;;;11.30;98.90;;;;;;5012056;28;20112;-80
2022/05/20 09:09:48;;;;;;;5.68;1.50;;;11.20;99.10;;;;;;5027887;28;20029;-81
2022/05/20 09:12:43;;;;;;;5.05;1.20;;;11.10;99.20;;;;;;5011997;28;20468;-80
2022/05/20 09:18:08;;;;;;;5.35;1.20;;;11.00;99.90;;;;;;5009564;28;20674;-80
2022/05/20 09:20:41;;;;;;;7.28;1.80;;;11.00;99.90;;;;;;5001189;28;20030;-79
2022/05/20 09:23:07;;;;;;;4.90;1.45;;;11.00;99.90;;;;;;5006477;28;20034;-81
2022/05/20 09:25:36;;;;;;;5.35;1.20;;;11.00;99.90;;;;;;5009744;28;20088;-81
2022/05/20 09:28:22;;;;;;;7.80;1.75;;;11.00;99.90;;;;;;5009467;28;20053;-81
2022/05/20 09:30:52;;;;;;;5.95;1.38;;;11.00;99.90;;;;;;5008885;28;20041;-80
2022/05/20 09:33:30;;;;;;;4.72;1.30;;;11.00;99.90;;;;;;5010613;28;20091;-82
2022/05/20 09:36:00;;;;;;;6.50;1.23;;;11.00;99.90;;;;;;5008576;28;20088;-82
2022/05/20 09:38:30;;;;;;;4.47;1.63;;;10.90;99.90;;;;;;5001349;28;20536;-81
2022/05/20 09:40:56;;;;;;;3.90;1.20;;;10.90;99.90;;;;;;5004342;28;20037;-81
2022/05/20 09:43:28;;;;;;;7.15;1.17;;;10.80;99.90;;;;;;5007213;28;20482;-82
2022/05/20 09:45:56;;;;;;;4.80;1.20;;;10.80;99.90;;;;;;5008751;28;20049;-80
2022/05/20 09:48:40;;;;;;;7.15;1.50;;;10.70;99.90;;;;;;5003782;28;20154;-80
2022/05/20 09:51:26;;;;;;;5.53;1.35;;;10.70;99.90;;;;;;5011927;28;20037;-78
2022/05/20 09:54:23;;;;;;;7.50;1.67;;;10.60;99.90;;;;;;5009418;28;20038;-78
2022/05/20 09:57:34;;;;;;;5.03;1.55;;;10.70;99.90;;;;;;5002835;28;20121;-80
2022/05/20 10:00:09;;;;;;;7.43;1.75;;;10.60;99.90;;;;;;5010132;28;20034;-81
2022/05/20 10:02:44;;;;;;;5.38;1.30;;;10.60;99.90;;;;;;5006914;28;20033;-76
2022/05/20 10:05:13;;;;;;;5.43;1.30;;;10.60;99.90;;;;;;5010661;28;20054;-78
2022/05/20 10:07:51;;;;;;;5.47;1.17;;;10.60;99.90;;;;;;5002235;28;20049;-79
2022/05/20 10:10:38;;;;;;;5.18;1.30;;;10.50;99.90;;;;;;5007194;28;20057;-82
2022/05/20 10:13:07;;;;;;;10.25;1.80;;;10.60;99.90;;;;;;5030591;28;20713;-83
2022/05/20 10:15:40;;;;;;;4.30;1.27;;;10.50;99.90;;;;;;5011377;28;20465;-83
2022/05/20 10:18:10;;;;;;;7.22;1.42;;;10.50;99.90;;;;;;5012112;28;20095;-78
2022/05/20 10:21:02;;;;;;;5.97;1.30;;;10.50;99.90;;;;;;5011771;28;20553;-78
2022/05/20 10:23:58;;;;;;;7.40;1.95;;;10.50;99.90;;;;;;5011414;28;20026;-80
2022/05/20 10:26:51;;;;;;;7.28;2.33;;;10.50;99.90;;;;;;5010343;28;20056;-77
2022/05/20 10:32:36;;;;;;;6.47;1.73;;;10.50;99.90;;;;;;4991836;28;20073;-79
2022/05/20 10:35:16;;;;;;;7.45;2.10;;;10.50;99.90;;;;;;5040355;28;20030;-79
2022/05/20 10:38:23;;;;;;;8.30;2.20;;;10.60;99.90;;;;;;5025583;28;20484;-79
2022/05/20 10:41:08;;;;;;;7.63;1.80;;;10.60;99.90;;;;;;5004117;28;20033;-79
2022/05/20 10:49:39;;;;;;;6.30;1.67;;;10.80;99.90;;;;;;4992412;28;20036;-80
2022/05/20 10:52:32;;;;;;;4.88;1.40;;;10.80;99.90;;;;;;4998605;28;20018;-79
2022/05/20 10:55:13;;;;;;;6.20;1.88;;;10.80;99.90;;;;;;4992536;28;20373;-79
2022/05/20 10:58:15;;;;;;;5.43;1.40;;;11.00;99.90;;;;;;5023509;28;20409;-78
2022/05/20 11:00:52;;;;;;;8.88;1.80;;;11.10;99.90;;;;;;5018052;28;20057;-79
2022/05/20 11:03:24;;;;;;;4.40;1.67;;;11.20;99.90;;;;;;5003677;28;20029;-77
2022/05/20 11:06:11;;;;;;;4.65;1.33;;;11.30;99.90;;;;;;5023754;28;20072;-77
2022/05/20 11:08:45;;;;;;;4.13;1.15;;;11.30;99.90;;;;;;5001554;28;20041;-78
2022/05/20 11:11:28;;;;;;;5.30;1.55;;;11.30;99.90;;;;;;5004928;28;20030;-76
2022/05/20 11:14:08;;;;;;;5.43;1.77;;;11.30;99.90;;;;;;5025416;28;20069;-76
2022/05/20 11:16:57;;;;;;;3.38;1.42;;;11.30;99.90;;;;;;5002304;28;20087;-77
2022/05/20 11:19:31;;;;;;;4.15;1.50;;;11.30;99.90;;;;;;4997528;28;20092;-78
2022/05/20 11:22:00;;;;;;;4.97;1.30;;;11.40;99.90;;;;;;5003394;28;20500;-78
2022/05/20 11:24:44;;;;;;;3.80;1.45;;;11.40;99.90;;;;;;5003059;28;20121;-76
2022/05/20 11:27:57;;;;;;;6.55;1.63;;;11.40;99.90;;;;;;5005209;28;20045;-76
2022/05/20 11:30:31;;;;;;;4.30;1.23;;;11.40;99.90;;;;;;5024336;28;20056;-77
2022/05/20 11:33:14;;;;;;;4.65;1.50;;;11.30;99.90;;;;;;5015976;28;20116;-75
2022/05/20 11:35:58;;;;;;;7.47;1.90;;;11.30;99.90;;;;;;5017079;28;20037;-76
2022/05/20 11:38:46;;;;;;;6.47;1.80;;;11.30;99.90;;;;;;5022128;28;20188;-75
2022/05/20 11:41:42;;;;;;;4.55;1.70;;;11.30;99.90;;;;;;5020005;28;20063;-77
2022/05/20 11:44:22;;;;;;;6.28;1.85;;;11.30;99.90;;;;;;5020311;28;20029;-76
2022/05/20 11:47:19;;;;;;;4.72;1.73;;;11.30;99.90;;;;;;5017719;28;20046;-75
2022/05/20 11:49:57;;;;;;;5.68;1.80;;;11.40;99.90;;;;;;5017008;28;20045;-76
2022/05/20 11:52:31;;;;;;;6.28;2.42;;;11.40;99.90;;;;;;5017799;28;20033;-75
2022/05/20 11:55:20;;;;;;;5.63;2.30;;;11.50;99.90;;;;;;5017077;28;20052;-75
2022/05/20 11:58:18;;;;;;;7.47;2.40;;;11.50;99.90;;;;;;4992899;28;20034;-76
2022/05/20 12:00:45;;;;;;;7.50;2.50;;;11.50;99.90;;;;;;5018110;28;20141;-76
2022/05/20 12:03:17;;;;;;;7.78;2.83;;;11.60;99.90;;;;;;5017072;28;20036;-75
2022/05/20 12:05:46;;;;;;;5.65;2.28;;;11.70;99.90;;;;;;5015367;28;20045;-75
2022/05/20 12:08:49;;;;;;;7.93;2.47;;;11.70;99.90;;;;;;5008502;28;20033;-76
2022/05/20 12:11:30;;;;;;;6.05;2.55;;;11.70;99.90;;;;;;5003492;28;20042;-75
2022/05/20 12:14:03;;;;;;;7.13;2.70;;;11.80;99.90;;;;;;5002439;28;20091;-76
2022/05/20 12:16:31;;;;;;;7.10;2.10;;;11.90;99.90;;;;;;5004649;28;20026;-77
2022/05/20 12:24:46;;;;;;;5.18;2.10;;;12.10;99.90;;;;;;5004316;28;20084;-75
2022/05/20 12:27:36;;;;;;;8.00;2.90;;;12.20;99.90;;;;;;5021534;28;20054;-75
2022/05/20 12:30:28;;;;;;;;;;;12.20;99.90;;;;;;5021930;28;20091;-75
2022/05/20 12:32:54;;;;;;;8.60;2.67;;;12.30;99.90;;;;;;4999869;28;19909;-75
2022/05/20 12:35:29;;;;;;;7.95;3.08;;;12.40;99.90;;;;;;5010351;28;20511;-75
2022/05/20 12:38:23;;;;;;;10.38;3.28;;;12.40;99.90;;;;;;5011447;28;20065;-76
2022/05/20 12:40:52;;;;;;;9.15;2.92;;;12.50;99.80;;;;;;5025374;28;20065;-75
2022/05/20 12:43:38;;;;;;;7.85;2.80;;;12.50;99.90;;;;;;5010683;28;20041;-76
2022/05/20 12:46:04;;;;;;;8.95;2.70;;;12.50;99.70;;;;;;5009598;28;20030;-76
2022/05/20 12:48:30;;;;;;;6.60;2.80;;;12.60;99.20;;;;;;5010711;28;20037;-76
2022/05/20 12:51:05;;;;;;;9.13;2.88;;;12.70;98.80;;;;;;5009951;28;20761;-76
2022/05/20 12:53:34;;;;;;;10.10;3.15;;;12.90;99.60;;;;;;5009176;28;20109;-78
2022/05/20 12:56:00;;;;;;;8.55;2.70;;;13.10;99.50;;;;;;5006608;28;20034;-76
2022/05/20 12:58:32;;;;;;;5.70;1.90;;;13.20;98.20;;;;;;5007247;28;20730;-79
2022/05/20 13:01:01;;;;;;;5.32;2.13;;;13.40;98.10;;;;;;5023256;28;20036;-76
2022/05/20 13:03:36;;;;;;;5.95;1.80;;;13.60;98.30;;;;;;4997349;28;20097;-77
2022/05/20 13:06:10;;;;;;;5.90;1.90;;;13.80;97.10;;;;;;5005739;28;20091;-75
2022/05/20 13:08:41;;;;;;;6.85;1.50;;;13.90;96.80;;;;;;5006765;28;20030;-76
2022/05/20 13:11:12;;;;;;;4.55;1.40;;;14.10;96.10;;;;;;5006919;28;20029;-78
2022/05/20 13:13:38;;;;;;;6.30;1.45;;;14.50;96.50;;;;;;5007606;28;20037;-78
2022/05/20 13:16:07;;;;;;;3.38;1.20;;;14.80;95.00;;;;;;5009450;28;20477;-78
2022/05/20 13:18:37;;;;;;;2.92;1.20;;;15.20;93.00;;;;;;5006483;28;20021;-77
2022/05/20 13:21:11;;;;;;;4.32;1.02;;;15.50;93.70;;;;;;5004758;28;20538;-80
2022/05/20 13:23:40;;;;;;;4.75;1.15;;;15.60;92.80;;;;;;5018428;28;20054;-78
2022/05/20 13:26:20;;;;;;;3.90;1.17;;;15.70;91.90;;;;;;5003161;28;20034;-77
2022/05/20 13:28:45;;;;;;;4.80;1.00;;;15.80;92.80;;;;;;5008510;28;20038;-78
2022/05/20 13:31:18;;;;;;;5.03;1.17;;;16.00;91.70;;;;;;5008639;28;20044;-76
2022/05/20 13:33:44;;;;;;;4.75;1.25;;;16.10;92.00;;;;;;5009414;28;20552;-79
2022/05/20 13:36:17;;;;;;;4.75;1.33;;;16.20;92.30;;;;;;5009256;28;20100;-78
2022/05/20 13:38:58;;;;;;;4.55;1.20;;;16.20;89.60;;;;;;5009927;28;20026;-78